sensor_id;sensor_type;location;lat;lon;timestamp;temperature;humidity
15481;DHT22;7842;50.904;6.670;2022-07-12T00:01:51;15.90;99.90
15481;DHT22;7842;50.904;6.670;2022-07-12T00:04:16;15.80;99.90
15481;DHT22;7842;50.904;6.670;2022-07-12T00:06:42;15.70;99.90
15481;DHT22;7842;50.904;6.670;2022-07-12T00:09:08;15.60;99.90
15481;DHT22;7842;50.904;6.670;2022-07-12T00:11:35;15.60;99.90
15481;DHT22;7842;50.904;6.670;2022-07-12T00:14:01;15.60;99.90
15481;DHT22;7842;50.904;6.670;2022-07-12T00:16:27;15.50;99.90
15481;DHT22;7842;50.904;6.670;2022-07-12T00:18:53;15.50;99.90
15481;DHT22;7842;50.904;6.670;2022-07-12T00:21:19;15.50;99.90
15481;DHT22;7842;50.904;6.670;2022-07-12T00:23:45;15.40;99.90
15481;DHT22;7842;50.904;6.670;2022-07-12T00:26:10;15.40;99.90
15481;DHT22;7842;50.904;6.670;2022-07-12T00:28:36;15.50;99.90
15481;DHT22;7842;50.904;6.670;2022-07-12T00:31:02;15.30;99.90
15481;DHT22;7842;50.904;6.670;2022-07-12T00:33:29;15.20;99.90
15481;DHT22;7842;50.904;6.670;2022-07-12T00:35:54;15.50;99.90
15481;DHT22;7842;50.904;6.670;2022-07-12T00:38:20;15.10;99.90
15481;DHT22;7842;50.904;6.670;2022-07-12T00:40:46;15.10;99.90
15481;DHT22;7842;50.904;6.670;2022-07-12T00:43:11;15.10;99.90
15481;DHT22;7842;50.904;6.670;2022-07-12T00:45:37;15.00;99.90
15481;DHT22;7842;50.904;6.670;2022-07-12T00:48:03;15.10;99.90
15481;DHT22;7842;50.904;6.670;2022-07-12T00:50:29;15.20;99.90
15481;DHT22;7842;50.904;6.670;2022-07-12T00:52:55;15.30;99.90
15481;DHT22;7842;50.904;6.670;2022-07-12T00:55:22;15.10;99.90
15481;DHT22;7842;50.904;6.670;2022-07-12T00:57:48;15.10;99.90
15481;DHT22;7842;50.904;6.670;2022-07-12T01:00:16;17.00;99.90
15481;DHT22;7842;50.904;6.670;2022-07-12T01:02:43;15.10;99.90
15481;DHT22;7842;50.904;6.670;2022-07-12T01:05:10;15.10;99.90
15481;DHT22;7842;50.904;6.670;2022-07-12T01:07:37;15.00;99.90
15481;DHT22;7842;50.904;6.670;2022-07-12T01:10:04;15.10;99.90
15481;DHT22;7842;50.904;6.670;2022-07-12T01:12:30;15.10;99.90
15481;DHT22;7842;50.904;6.670;2022-07-12T01:14:56;15.60;99.90
15481;DHT22;7842;50.904;6.670;2022-07-12T01:17:23;16.10;99.90
15481;DHT22;7842;50.904;6.670;2022-07-12T01:19:57;14.90;99.90
15481;DHT22;7842;50.904;6.670;2022-07-12T01:22:31;14.80;99.90
15481;DHT22;7842;50.904;6.670;2022-07-12T01:24:58;14.80;99.90
15481;DHT22;7842;50.904;6.670;2022-07-12T01:27:24;15.70;99.90
15481;DHT22;7842;50.904;6.670;2022-07-12T01:29:50;14.70;99.90
15481;DHT22;7842;50.904;6.670;2022-07-12T01:32:16;14.70;99.90
15481;DHT22;7842;50.904;6.670;2022-07-12T01:34:55;14.60;99.90
15481;DHT22;7842;50.904;6.670;2022-07-12T01:37:23;14.60;99.90
15481;DHT22;7842;50.904;6.670;2022-07-12T01:39:54;14.50;99.90
15481;DHT22;7842;50.904;6.670;2022-07-12T01:42:21;14.40;99.90
15481;DHT22;7842;50.904;6.670;2022-07-12T01:44:48;14.30;99.90
15481;DHT22;7842;50.904;6.670;2022-07-12T01:47:16;14.30;99.90
15481;DHT22;7842;50.904;6.670;2022-07-12T01:49:42;14.20;99.90
15481;DHT22;7842;50.904;6.670;2022-07-12T01:52:08;14.20;99.90
15481;DHT22;7842;50.904;6.670;2022-07-12T01:54:34;14.20;99.90
15481;DHT22;7842;50.904;6.670;2022-07-12T01:57:01;14.20;99.90
15481;DHT22;7842;50.904;6.670;2022-07-12T01:59:27;14.20;99.90
15481;DHT22;7842;50.904;6.670;2022-07-12T02:01:54;14.20;99.90
15481;DHT22;7842;50.904;6.670;2022-07-12T02:04:20;14.20;99.90
15481;DHT22;7842;50.904;6.670;2022-07-12T02:06:46;14.30;99.90
15481;DHT22;7842;50.904;6.670;2022-07-12T02:09:13;14.10;99.90
15481;DHT22;7842;50.904;6.670;2022-07-12T02:11:39;15.20;99.90
15481;DHT22;7842;50.904;6.670;2022-07-12T02:14:06;13.90;99.90
15481;DHT22;7842;50.904;6.670;2022-07-12T02:16:32;13.90;99.90
15481;DHT22;7842;50.904;6.670;2022-07-12T02:18:57;13.90;99.90
15481;DHT22;7842;50.904;6.670;2022-07-12T02:21:23;14.80;99.90
15481;DHT22;7842;50.904;6.670;2022-07-12T02:23:49;15.60;99.90
15481;DHT22;7842;50.904;6.670;2022-07-12T02:26:15;13.90;99.90
15481;DHT22;7842;50.904;6.670;2022-07-12T02:28:41;14.00;99.90
15481;DHT22;7842;50.904;6.670;2022-07-12T02:31:06;13.90;99.90
15481;DHT22;7842;50.904;6.670;2022-07-12T02:33:32;13.90;99.90
15481;DHT22;7842;50.904;6.670;2022-07-12T02:35:58;13.90;99.90
15481;DHT22;7842;50.904;6.670;2022-07-12T02:38:23;14.00;99.90
15481;DHT22;7842;50.904;6.670;2022-07-12T02:40:49;15.50;99.90
15481;DHT22;7842;50.904;6.670;2022-07-12T02:45:46;14.30;99.90
15481;DHT22;7842;50.904;6.670;2022-07-12T02:48:12;16.00;99.90
15481;DHT22;7842;50.904;6.670;2022-07-12T02:50:39;13.90;99.90
15481;DHT22;7842;50.904;6.670;2022-07-12T02:53:05;14.70;99.90
15481;DHT22;7842;50.904;6.670;2022-07-12T02:55:31;14.20;99.90
15481;DHT22;7842;50.904;6.670;2022-07-12T02:57:57;14.30;99.90
15481;DHT22;7842;50.904;6.670;2022-07-12T03:00:22;13.80;99.90
15481;DHT22;7842;50.904;6.670;2022-07-12T03:02:48;14.10;99.90
15481;DHT22;7842;50.904;6.670;2022-07-12T03:05:14;15.60;99.90
15481;DHT22;7842;50.904;6.670;2022-07-12T03:07:39;13.60;99.90
15481;DHT22;7842;50.904;6.670;2022-07-12T03:10:05;13.60;99.90
15481;DHT22;7842;50.904;6.670;2022-07-12T03:12:31;13.60;99.90
15481;DHT22;7842;50.904;6.670;2022-07-12T03:14:57;15.10;99.90
15481;DHT22;7842;50.904;6.670;2022-07-12T03:17:22;13.60;99.90
15481;DHT22;7842;50.904;6.670;2022-07-12T03:19:48;13.70;99.90
15481;DHT22;7842;50.904;6.670;2022-07-12T03:22:14;13.70;99.90
15481;DHT22;7842;50.904;6.670;2022-07-12T03:24:39;13.60;99.90
15481;DHT22;7842;50.904;6.670;2022-07-12T03:27:05;13.90;99.90
15481;DHT22;7842;50.904;6.670;2022-07-12T03:29:31;13.70;99.90
15481;DHT22;7842;50.904;6.670;2022-07-12T03:31:56;13.60;99.90
15481;DHT22;7842;50.904;6.670;2022-07-12T03:34:22;13.70;99.90
15481;DHT22;7842;50.904;6.670;2022-07-12T03:36:48;13.70;99.90
15481;DHT22;7842;50.904;6.670;2022-07-12T03:39:13;13.70;99.90
15481;DHT22;7842;50.904;6.670;2022-07-12T03:41:39;13.60;99.90
15481;DHT22;7842;50.904;6.670;2022-07-12T03:44:05;13.60;99.90
15481;DHT22;7842;50.904;6.670;2022-07-12T03:46:31;13.60;99.90
15481;DHT22;7842;50.904;6.670;2022-07-12T03:48:58;14.20;99.90
15481;DHT22;7842;50.904;6.670;2022-07-12T03:51:25;13.40;99.90
15481;DHT22;7842;50.904;6.670;2022-07-12T03:53:50;14.80;99.90
15481;DHT22;7842;50.904;6.670;2022-07-12T03:56:16;15.10;99.90
15481;DHT22;7842;50.904;6.670;2022-07-12T03:59:00;13.50;99.90
15481;DHT22;7842;50.904;6.670;2022-07-12T04:01:26;13.50;99.90
15481;DHT22;7842;50.904;6.670;2022-07-12T04:03:52;15.00;99.90
15481;DHT22;7842;50.904;6.670;2022-07-12T04:06:17;13.90;99.90
15481;DHT22;7842;50.904;6.670;2022-07-12T04:08:43;14.30;99.90
15481;DHT22;7842;50.904;6.670;2022-07-12T04:11:08;14.20;99.90
15481;DHT22;7842;50.904;6.670;2022-07-12T04:13:34;13.70;99.90
15481;DHT22;7842;50.904;6.670;2022-07-12T04:15:59;13.80;99.90
15481;DHT22;7842;50.904;6.670;2022-07-12T04:18:25;14.10;99.90
15481;DHT22;7842;50.904;6.670;2022-07-12T04:20:51;15.10;99.90
15481;DHT22;7842;50.904;6.670;2022-07-12T04:23:16;14.20;99.90
15481;DHT22;7842;50.904;6.670;2022-07-12T04:25:42;14.30;99.90
15481;DHT22;7842;50.904;6.670;2022-07-12T04:28:08;14.50;99.90
15481;DHT22;7842;50.904;6.670;2022-07-12T04:30:33;14.70;99.90
15481;DHT22;7842;50.904;6.670;2022-07-12T04:32:59;14.80;99.90
15481;DHT22;7842;50.904;6.670;2022-07-12T04:35:24;15.00;99.90
15481;DHT22;7842;50.904;6.670;2022-07-12T04:37:50;15.30;99.90
15481;DHT22;7842;50.904;6.670;2022-07-12T04:40:15;15.50;99.90
15481;DHT22;7842;50.904;6.670;2022-07-12T04:42:41;15.90;99.90
15481;DHT22;7842;50.904;6.670;2022-07-12T04:45:07;16.30;99.90
15481;DHT22;7842;50.904;6.670;2022-07-12T04:47:35;16.60;99.90
15481;DHT22;7842;50.904;6.670;2022-07-12T04:50:06;16.80;99.90
15481;DHT22;7842;50.904;6.670;2022-07-12T04:52:33;17.10;99.90
15481;DHT22;7842;50.904;6.670;2022-07-12T04:54:58;17.30;99.90
15481;DHT22;7842;50.904;6.670;2022-07-12T04:57:24;17.60;99.90
15481;DHT22;7842;50.904;6.670;2022-07-12T04:59:49;17.90;99.90
15481;DHT22;7842;50.904;6.670;2022-07-12T05:02:15;18.20;99.90
15481;DHT22;7842;50.904;6.670;2022-07-12T05:04:41;18.20;99.90
15481;DHT22;7842;50.904;6.670;2022-07-12T05:07:06;18.70;99.90
15481;DHT22;7842;50.904;6.670;2022-07-12T05:09:32;17.60;99.90
15481;DHT22;7842;50.904;6.670;2022-07-12T05:11:57;17.20;99.90
15481;DHT22;7842;50.904;6.670;2022-07-12T05:14:23;16.90;99.90
15481;DHT22;7842;50.904;6.670;2022-07-12T05:16:49;17.20;99.90
15481;DHT22;7842;50.904;6.670;2022-07-12T05:19:14;18.00;99.90
15481;DHT22;7842;50.904;6.670;2022-07-12T05:21:41;18.80;99.90
15481;DHT22;7842;50.904;6.670;2022-07-12T05:24:07;19.60;99.90
15481;DHT22;7842;50.904;6.670;2022-07-12T05:26:33;20.00;99.90
15481;DHT22;7842;50.904;6.670;2022-07-12T05:28:59;20.60;99.90
15481;DHT22;7842;50.904;6.670;2022-07-12T05:31:25;21.30;99.90
15481;DHT22;7842;50.904;6.670;2022-07-12T05:33:52;20.50;99.90
15481;DHT22;7842;50.904;6.670;2022-07-12T05:36:18;20.90;99.90
15481;DHT22;7842;50.904;6.670;2022-07-12T05:38:43;21.40;99.90
15481;DHT22;7842;50.904;6.670;2022-07-12T05:41:09;21.40;99.90
15481;DHT22;7842;50.904;6.670;2022-07-12T05:43:35;21.80;99.90
15481;DHT22;7842;50.904;6.670;2022-07-12T05:46:00;22.10;99.90
15481;DHT22;7842;50.904;6.670;2022-07-12T05:48:26;22.40;99.90
15481;DHT22;7842;50.904;6.670;2022-07-12T05:50:52;22.80;99.90
15481;DHT22;7842;50.904;6.670;2022-07-12T05:53:17;23.10;99.90
15481;DHT22;7842;50.904;6.670;2022-07-12T05:55:50;23.40;99.90
15481;DHT22;7842;50.904;6.670;2022-07-12T05:58:17;23.60;99.90
15481;DHT22;7842;50.904;6.670;2022-07-12T06:00:43;23.70;99.90
15481;DHT22;7842;50.904;6.670;2022-07-12T06:03:09;24.20;99.90
15481;DHT22;7842;50.904;6.670;2022-07-12T06:05:35;23.50;99.90
15481;DHT22;7842;50.904;6.670;2022-07-12T06:08:01;23.80;99.90
15481;DHT22;7842;50.904;6.670;2022-07-12T06:10:27;24.30;99.90
15481;DHT22;7842;50.904;6.670;2022-07-12T06:12:53;23.60;99.90
15481;DHT22;7842;50.904;6.670;2022-07-12T06:15:18;22.80;99.90
15481;DHT22;7842;50.904;6.670;2022-07-12T06:17:44;23.20;99.90
15481;DHT22;7842;50.904;6.670;2022-07-12T06:20:10;23.80;99.90
15481;DHT22;7842;50.904;6.670;2022-07-12T06:22:36;24.30;99.90
15481;DHT22;7842;50.904;6.670;2022-07-12T06:25:02;23.60;99.90
15481;DHT22;7842;50.904;6.670;2022-07-12T06:27:27;23.80;99.90
15481;DHT22;7842;50.904;6.670;2022-07-12T06:29:53;23.60;99.90
15481;DHT22;7842;50.904;6.670;2022-07-12T06:32:19;23.60;99.90
15481;DHT22;7842;50.904;6.670;2022-07-12T06:34:44;23.50;99.90
15481;DHT22;7842;50.904;6.670;2022-07-12T06:37:10;23.60;99.90
15481;DHT22;7842;50.904;6.670;2022-07-12T06:39:38;24.00;99.90
15481;DHT22;7842;50.904;6.670;2022-07-12T06:42:04;25.00;99.90
15481;DHT22;7842;50.904;6.670;2022-07-12T06:44:30;25.10;99.90
15481;DHT22;7842;50.904;6.670;2022-07-12T06:46:57;25.10;99.90
15481;DHT22;7842;50.904;6.670;2022-07-12T06:49:23;25.40;99.90
15481;DHT22;7842;50.904;6.670;2022-07-12T06:51:48;25.70;99.90
15481;DHT22;7842;50.904;6.670;2022-07-12T06:54:14;25.50;99.90
15481;DHT22;7842;50.904;6.670;2022-07-12T06:56:40;25.60;99.90
15481;DHT22;7842;50.904;6.670;2022-07-12T06:59:07;25.70;99.90
15481;DHT22;7842;50.904;6.670;2022-07-12T07:01:36;25.40;99.90
15481;DHT22;7842;50.904;6.670;2022-07-12T07:04:02;25.00;99.90
15481;DHT22;7842;50.904;6.670;2022-07-12T07:06:27;24.80;99.90
15481;DHT22;7842;50.904;6.670;2022-07-12T07:08:53;25.10;99.90
15481;DHT22;7842;50.904;6.670;2022-07-12T07:11:19;24.70;99.90
15481;DHT22;7842;50.904;6.670;2022-07-12T07:13:44;24.80;99.90
15481;DHT22;7842;50.904;6.670;2022-07-12T07:16:10;24.30;99.90
15481;DHT22;7842;50.904;6.670;2022-07-12T07:18:35;24.50;99.90
15481;DHT22;7842;50.904;6.670;2022-07-12T07:21:01;24.40;99.90
15481;DHT22;7842;50.904;6.670;2022-07-12T07:23:26;24.00;99.90
15481;DHT22;7842;50.904;6.670;2022-07-12T07:25:52;23.80;99.90
15481;DHT22;7842;50.904;6.670;2022-07-12T07:28:18;23.60;99.90
15481;DHT22;7842;50.904;6.670;2022-07-12T07:30:43;23.30;99.90
15481;DHT22;7842;50.904;6.670;2022-07-12T07:33:19;23.40;99.90
15481;DHT22;7842;50.904;6.670;2022-07-12T07:35:45;23.40;99.90
15481;DHT22;7842;50.904;6.670;2022-07-12T07:38:11;23.10;99.90
15481;DHT22;7842;50.904;6.670;2022-07-12T07:40:36;24.00;99.90
15481;DHT22;7842;50.904;6.670;2022-07-12T07:43:02;23.00;99.90
15481;DHT22;7842;50.904;6.670;2022-07-12T07:45:27;22.90;99.90
15481;DHT22;7842;50.904;6.670;2022-07-12T07:47:53;23.20;99.90
15481;DHT22;7842;50.904;6.670;2022-07-12T07:50:19;22.90;99.90
15481;DHT22;7842;50.904;6.670;2022-07-12T07:52:44;22.60;99.90
15481;DHT22;7842;50.904;6.670;2022-07-12T07:55:11;23.00;99.90
15481;DHT22;7842;50.904;6.670;2022-07-12T07:57:36;23.10;99.90
15481;DHT22;7842;50.904;6.670;2022-07-12T08:00:03;23.40;99.90
15481;DHT22;7842;50.904;6.670;2022-07-12T08:02:29;23.50;99.90
15481;DHT22;7842;50.904;6.670;2022-07-12T08:04:54;23.70;99.90
15481;DHT22;7842;50.904;6.670;2022-07-12T08:07:20;24.00;99.90
15481;DHT22;7842;50.904;6.670;2022-07-12T08:09:45;23.60;99.90
15481;DHT22;7842;50.904;6.670;2022-07-12T08:12:11;23.50;99.90
15481;DHT22;7842;50.904;6.670;2022-07-12T08:14:36;23.60;99.90
15481;DHT22;7842;50.904;6.670;2022-07-12T08:17:02;23.80;99.90
15481;DHT22;7842;50.904;6.670;2022-07-12T08:19:28;24.10;99.90
15481;DHT22;7842;50.904;6.670;2022-07-12T08:21:53;24.20;99.90
15481;DHT22;7842;50.904;6.670;2022-07-12T08:24:19;24.40;99.90
15481;DHT22;7842;50.904;6.670;2022-07-12T08:26:44;24.60;99.90
15481;DHT22;7842;50.904;6.670;2022-07-12T08:29:10;24.70;99.90
15481;DHT22;7842;50.904;6.670;2022-07-12T08:31:36;24.80;99.90
15481;DHT22;7842;50.904;6.670;2022-07-12T08:34:02;25.00;99.90
15481;DHT22;7842;50.904;6.670;2022-07-12T08:36:27;25.20;99.90
15481;DHT22;7842;50.904;6.670;2022-07-12T08:38:53;25.30;99.90
15481;DHT22;7842;50.904;6.670;2022-07-12T08:41:18;25.30;99.90
15481;DHT22;7842;50.904;6.670;2022-07-12T08:43:44;25.00;99.90
15481;DHT22;7842;50.904;6.670;2022-07-12T08:46:12;24.50;99.90
15481;DHT22;7842;50.904;6.670;2022-07-12T08:48:39;24.70;99.90
15481;DHT22;7842;50.904;6.670;2022-07-12T08:51:06;25.00;99.90
15481;DHT22;7842;50.904;6.670;2022-07-12T08:53:32;25.20;99.90
15481;DHT22;7842;50.904;6.670;2022-07-12T08:55:58;25.20;99.90
15481;DHT22;7842;50.904;6.670;2022-07-12T08:58:24;25.30;99.90
15481;DHT22;7842;50.904;6.670;2022-07-12T09:00:49;25.60;99.90
15481;DHT22;7842;50.904;6.670;2022-07-12T09:03:15;25.70;99.90
15481;DHT22;7842;50.904;6.670;2022-07-12T09:06:07;25.90;99.90
15481;DHT22;7842;50.904;6.670;2022-07-12T09:08:38;25.30;99.90
15481;DHT22;7842;50.904;6.670;2022-07-12T09:11:05;25.40;99.90
15481;DHT22;7842;50.904;6.670;2022-07-12T09:13:48;25.30;99.90
15481;DHT22;7842;50.904;6.670;2022-07-12T09:16:16;25.60;99.90
15481;DHT22;7842;50.904;6.670;2022-07-12T09:18:43;25.50;99.90
15481;DHT22;7842;50.904;6.670;2022-07-12T09:21:09;25.60;99.90
15481;DHT22;7842;50.904;6.670;2022-07-12T09:23:34;25.70;99.90
15481;DHT22;7842;50.904;6.670;2022-07-12T09:26:00;25.60;99.90
15481;DHT22;7842;50.904;6.670;2022-07-12T09:28:33;25.70;99.90
15481;DHT22;7842;50.904;6.670;2022-07-12T09:30:58;26.10;99.90
15481;DHT22;7842;50.904;6.670;2022-07-12T09:33:24;26.30;99.90
15481;DHT22;7842;50.904;6.670;2022-07-12T09:36:08;26.30;99.90
15481;DHT22;7842;50.904;6.670;2022-07-12T09:38:50;26.00;99.90
15481;DHT22;7842;50.904;6.670;2022-07-12T09:41:19;26.20;99.90
15481;DHT22;7842;50.904;6.670;2022-07-12T09:43:45;26.00;99.90
15481;DHT22;7842;50.904;6.670;2022-07-12T09:46:13;25.70;99.90
15481;DHT22;7842;50.904;6.670;2022-07-12T09:48:40;25.50;99.90
15481;DHT22;7842;50.904;6.670;2022-07-12T09:51:08;25.70;99.90
15481;DHT22;7842;50.904;6.670;2022-07-12T09:53:45;25.70;99.90
15481;DHT22;7842;50.904;6.670;2022-07-12T09:56:13;26.10;99.90
15481;DHT22;7842;50.904;6.670;2022-07-12T09:58:59;26.60;99.90
15481;DHT22;7842;50.904;6.670;2022-07-12T10:01:26;27.20;99.90
15481;DHT22;7842;50.904;6.670;2022-07-12T10:03:56;27.40;99.90
15481;DHT22;7842;50.904;6.670;2022-07-12T10:06:26;27.60;99.90
15481;DHT22;7842;50.904;6.670;2022-07-12T10:08:52;27.50;99.90
15481;DHT22;7842;50.904;6.670;2022-07-12T10:11:19;27.40;99.90
15481;DHT22;7842;50.904;6.670;2022-07-12T10:13:45;27.10;99.90
15481;DHT22;7842;50.904;6.670;2022-07-12T10:16:13;26.60;99.90
15481;DHT22;7842;50.904;6.670;2022-07-12T10:18:40;26.80;99.90
15481;DHT22;7842;50.904;6.670;2022-07-12T10:21:26;26.70;99.90
15481;DHT22;7842;50.904;6.670;2022-07-12T10:23:51;26.70;99.90
15481;DHT22;7842;50.904;6.670;2022-07-12T10:28:56;27.00;99.90
15481;DHT22;7842;50.904;6.670;2022-07-12T10:31:24;27.00;99.90
15481;DHT22;7842;50.904;6.670;2022-07-12T10:34:09;27.00;99.90
15481;DHT22;7842;50.904;6.670;2022-07-12T10:39:21;27.00;99.90
15481;DHT22;7842;50.904;6.670;2022-07-12T10:44:39;27.30;99.90
15481;DHT22;7842;50.904;6.670;2022-07-12T10:47:07;28.20;99.90
15481;DHT22;7842;50.904;6.670;2022-07-12T10:49:34;27.50;99.90
15481;DHT22;7842;50.904;6.670;2022-07-12T10:57:08;27.00;99.90
15481;DHT22;7842;50.904;6.670;2022-07-12T10:59:35;26.90;99.90
15481;DHT22;7842;50.904;6.670;2022-07-12T11:02:02;27.10;99.90
15481;DHT22;7842;50.904;6.670;2022-07-12T11:04:27;27.20;99.90
15481;DHT22;7842;50.904;6.670;2022-07-12T11:06:54;27.30;99.90
15481;DHT22;7842;50.904;6.670;2022-07-12T11:09:24;27.00;99.90
15481;DHT22;7842;50.904;6.670;2022-07-12T11:11:51;27.20;99.90
15481;DHT22;7842;50.904;6.670;2022-07-12T11:14:27;27.10;99.90
15481;DHT22;7842;50.904;6.670;2022-07-12T11:16:56;27.10;99.90
15481;DHT22;7842;50.904;6.670;2022-07-12T11:19:26;27.10;99.90
15481;DHT22;7842;50.904;6.670;2022-07-12T11:21:55;27.20;99.90
15481;DHT22;7842;50.904;6.670;2022-07-12T11:24:23;27.40;99.90
15481;DHT22;7842;50.904;6.670;2022-07-12T11:26:49;27.30;99.90
15481;DHT22;7842;50.904;6.670;2022-07-12T11:29:15;27.70;99.90
15481;DHT22;7842;50.904;6.670;2022-07-12T11:31:41;27.80;99.90
15481;DHT22;7842;50.904;6.670;2022-07-12T11:34:09;27.70;99.90
15481;DHT22;7842;50.904;6.670;2022-07-12T11:36:45;27.50;99.90
15481;DHT22;7842;50.904;6.670;2022-07-12T11:39:11;27.40;99.90
15481;DHT22;7842;50.904;6.670;2022-07-12T11:41:36;27.50;99.90
15481;DHT22;7842;50.904;6.670;2022-07-12T11:44:02;27.40;99.90
15481;DHT22;7842;50.904;6.670;2022-07-12T11:46:28;27.60;99.90
15481;DHT22;7842;50.904;6.670;2022-07-12T11:48:53;27.70;99.90
15481;DHT22;7842;50.904;6.670;2022-07-12T11:51:19;27.70;99.90
15481;DHT22;7842;50.904;6.670;2022-07-12T11:53:51;27.90;99.90
15481;DHT22;7842;50.904;6.670;2022-07-12T11:56:29;27.70;99.90
15481;DHT22;7842;50.904;6.670;2022-07-12T11:58:56;27.70;99.90
15481;DHT22;7842;50.904;6.670;2022-07-12T12:01:25;27.80;99.90
15481;DHT22;7842;50.904;6.670;2022-07-12T12:03:51;28.00;99.90
15481;DHT22;7842;50.904;6.670;2022-07-12T12:06:17;28.10;99.90
15481;DHT22;7842;50.904;6.670;2022-07-12T12:08:43;28.10;99.90
15481;DHT22;7842;50.904;6.670;2022-07-12T12:11:10;27.90;99.90
15481;DHT22;7842;50.904;6.670;2022-07-12T12:13:36;27.80;99.90
15481;DHT22;7842;50.904;6.670;2022-07-12T12:16:03;27.90;99.90
15481;DHT22;7842;50.904;6.670;2022-07-12T12:18:37;27.70;99.90
15481;DHT22;7842;50.904;6.670;2022-07-12T12:21:08;27.90;99.90
15481;DHT22;7842;50.904;6.670;2022-07-12T12:23:35;28.00;99.90
15481;DHT22;7842;50.904;6.670;2022-07-12T12:26:13;28.30;99.90
15481;DHT22;7842;50.904;6.670;2022-07-12T12:31:13;28.40;99.90
15481;DHT22;7842;50.904;6.670;2022-07-12T12:33:48;28.40;99.90
15481;DHT22;7842;50.904;6.670;2022-07-12T12:38:55;28.50;99.90
15481;DHT22;7842;50.904;6.670;2022-07-12T12:41:22;28.70;99.90
15481;DHT22;7842;50.904;6.670;2022-07-12T12:44:03;28.80;99.90
15481;DHT22;7842;50.904;6.670;2022-07-12T12:46:52;29.00;99.90
15481;DHT22;7842;50.904;6.670;2022-07-12T12:49:50;29.20;99.90
15481;DHT22;7842;50.904;6.670;2022-07-12T12:57:11;29.20;99.90
15481;DHT22;7842;50.904;6.670;2022-07-12T12:59:37;29.00;99.90
15481;DHT22;7842;50.904;6.670;2022-07-12T13:02:04;28.90;99.90
15481;DHT22;7842;50.904;6.670;2022-07-12T13:04:31;29.00;99.90
15481;DHT22;7842;50.904;6.670;2022-07-12T13:06:58;28.90;99.90
15481;DHT22;7842;50.904;6.670;2022-07-12T13:09:24;29.00;99.90
15481;DHT22;7842;50.904;6.670;2022-07-12T13:11:50;28.50;99.90
15481;DHT22;7842;50.904;6.670;2022-07-12T13:14:16;28.20;99.90
15481;DHT22;7842;50.904;6.670;2022-07-12T13:16:42;28.20;99.90
15481;DHT22;7842;50.904;6.670;2022-07-12T13:19:07;28.60;99.90
15481;DHT22;7842;50.904;6.670;2022-07-12T13:21:34;28.70;99.90
15481;DHT22;7842;50.904;6.670;2022-07-12T13:23:59;29.00;99.90
15481;DHT22;7842;50.904;6.670;2022-07-12T13:26:25;29.20;99.90
15481;DHT22;7842;50.904;6.670;2022-07-12T13:28:54;29.10;99.90
15481;DHT22;7842;50.904;6.670;2022-07-12T13:31:20;29.00;99.90
15481;DHT22;7842;50.904;6.670;2022-07-12T13:33:46;29.20;99.90
15481;DHT22;7842;50.904;6.670;2022-07-12T13:36:12;29.40;99.20
15481;DHT22;7842;50.904;6.670;2022-07-12T13:38:38;29.50;98.30
15481;DHT22;7842;50.904;6.670;2022-07-12T13:41:04;29.70;97.70
15481;DHT22;7842;50.904;6.670;2022-07-12T13:43:30;29.90;98.00
15481;DHT22;7842;50.904;6.670;2022-07-12T13:45:55;30.10;97.80
15481;DHT22;7842;50.904;6.670;2022-07-12T13:48:21;30.10;97.70
15481;DHT22;7842;50.904;6.670;2022-07-12T13:50:47;30.10;97.40
15481;DHT22;7842;50.904;6.670;2022-07-12T13:53:13;29.90;97.90
15481;DHT22;7842;50.904;6.670;2022-07-12T13:55:42;29.60;97.10
15481;DHT22;7842;50.904;6.670;2022-07-12T13:58:08;29.50;94.90
15481;DHT22;7842;50.904;6.670;2022-07-12T14:00:34;29.40;96.70
15481;DHT22;7842;50.904;6.670;2022-07-12T14:03:00;29.50;96.00
15481;DHT22;7842;50.904;6.670;2022-07-12T14:05:26;29.80;95.50
15481;DHT22;7842;50.904;6.670;2022-07-12T14:07:51;29.80;94.30
15481;DHT22;7842;50.904;6.670;2022-07-12T14:10:17;30.00;94.80
15481;DHT22;7842;50.904;6.670;2022-07-12T14:12:43;29.90;94.20
15481;DHT22;7842;50.904;6.670;2022-07-12T14:15:10;30.00;93.60
15481;DHT22;7842;50.904;6.670;2022-07-12T14:17:47;30.00;93.80
15481;DHT22;7842;50.904;6.670;2022-07-12T14:20:18;30.20;93.90
15481;DHT22;7842;50.904;6.670;2022-07-12T14:22:45;29.90;91.40
15481;DHT22;7842;50.904;6.670;2022-07-12T14:25:11;29.80;92.50
15481;DHT22;7842;50.904;6.670;2022-07-12T14:27:37;29.90;91.70
15481;DHT22;7842;50.904;6.670;2022-07-12T14:30:05;29.80;90.10
15481;DHT22;7842;50.904;6.670;2022-07-12T14:32:31;29.80;84.80
15481;DHT22;7842;50.904;6.670;2022-07-12T14:34:57;29.80;85.40
15481;DHT22;7842;50.904;6.670;2022-07-12T14:37:23;29.80;87.70
15481;DHT22;7842;50.904;6.670;2022-07-12T14:39:48;29.80;83.60
15481;DHT22;7842;50.904;6.670;2022-07-12T14:42:14;29.80;86.10
15481;DHT22;7842;50.904;6.670;2022-07-12T14:44:40;29.80;85.80
15481;DHT22;7842;50.904;6.670;2022-07-12T14:47:06;29.90;85.70
15481;DHT22;7842;50.904;6.670;2022-07-12T14:49:33;30.10;86.50
15481;DHT22;7842;50.904;6.670;2022-07-12T14:51:58;30.30;83.90
15481;DHT22;7842;50.904;6.670;2022-07-12T14:54:24;30.20;81.10
15481;DHT22;7842;50.904;6.670;2022-07-12T14:56:50;30.10;81.20
15481;DHT22;7842;50.904;6.670;2022-07-12T14:59:15;30.20;82.50
15481;DHT22;7842;50.904;6.670;2022-07-12T15:01:41;30.30;82.00
15481;DHT22;7842;50.904;6.670;2022-07-12T15:04:07;30.00;82.00
15481;DHT22;7842;50.904;6.670;2022-07-12T15:06:33;29.90;81.70
15481;DHT22;7842;50.904;6.670;2022-07-12T15:08:59;29.80;80.80
15481;DHT22;7842;50.904;6.670;2022-07-12T15:11:24;29.80;80.40
15481;DHT22;7842;50.904;6.670;2022-07-12T15:13:50;29.80;82.50
15481;DHT22;7842;50.904;6.670;2022-07-12T15:16:16;29.70;83.30
15481;DHT22;7842;50.904;6.670;2022-07-12T15:18:41;29.60;83.90
15481;DHT22;7842;50.904;6.670;2022-07-12T15:21:07;29.50;86.30
15481;DHT22;7842;50.904;6.670;2022-07-12T15:23:32;29.70;88.10
15481;DHT22;7842;50.904;6.670;2022-07-12T15:25:58;29.90;84.30
15481;DHT22;7842;50.904;6.670;2022-07-12T15:28:28;29.90;84.30
15481;DHT22;7842;50.904;6.670;2022-07-12T15:30:57;30.00;88.60
15481;DHT22;7842;50.904;6.670;2022-07-12T15:33:23;30.30;86.50
15481;DHT22;7842;50.904;6.670;2022-07-12T15:35:51;30.50;84.10
15481;DHT22;7842;50.904;6.670;2022-07-12T15:38:17;30.50;83.00
15481;DHT22;7842;50.904;6.670;2022-07-12T15:40:43;30.40;84.10
15481;DHT22;7842;50.904;6.670;2022-07-12T15:43:09;30.30;82.90
15481;DHT22;7842;50.904;6.670;2022-07-12T15:45:37;30.30;82.20
15481;DHT22;7842;50.904;6.670;2022-07-12T15:48:03;30.10;81.70
15481;DHT22;7842;50.904;6.670;2022-07-12T15:50:29;30.20;82.90
15481;DHT22;7842;50.904;6.670;2022-07-12T15:52:55;30.00;83.00
15481;DHT22;7842;50.904;6.670;2022-07-12T15:55:39;30.00;82.80
15481;DHT22;7842;50.904;6.670;2022-07-12T15:58:05;30.00;82.90
15481;DHT22;7842;50.904;6.670;2022-07-12T16:00:32;30.10;82.40
15481;DHT22;7842;50.904;6.670;2022-07-12T16:02:58;30.30;82.90
15481;DHT22;7842;50.904;6.670;2022-07-12T16:05:24;30.50;80.50
15481;DHT22;7842;50.904;6.670;2022-07-12T16:07:51;30.60;80.40
15481;DHT22;7842;50.904;6.670;2022-07-12T16:10:17;30.60;78.30